Time;durP1;ratioP1;P1;durP2;ratioP2;P2;SDS_P1;SDS_P2;PMS_P1;PMS_P2;Temp;Humidity;BMP_temperature;BMP_pressure;BME280_temperature;BME280_humidity;BME280_pressure;Samples;Min_cycle;Max_cycle;Signal;HPM_P1;HPM_P2
2023/04/12 00:02:15;;;;;;;4.32;2.35;;;9.20;54.90;;;;;;5023602;28;20034;-62
2023/04/12 00:04:40;;;;;;;5.80;2.53;;;9.20;54.80;;;;;;5027581;28;20033;-62
2023/04/12 00:07:07;;;;;;;8.27;2.60;;;9.20;54.80;;;;;;5028404;28;20034;-61
2023/04/12 00:09:35;;;;;;;10.95;2.90;;;9.20;54.80;;;;;;5026293;28;20025;-63
2023/04/12 00:12:01;;;;;;;8.90;3.35;;;9.20;54.90;;;;;;5024687;28;20052;-62
2023/04/12 00:14:28;;;;;;;4.32;2.92;;;9.20;54.90;;;;;;5021899;28;20101;-62
2023/04/12 00:16:54;;;;;;;10.88;3.05;;;9.20;55.00;;;;;;5028352;28;20034;-62
2023/04/12 00:19:20;;;;;;;7.88;2.92;;;9.20;55.00;;;;;;5028472;28;20025;-62
2023/04/12 00:21:47;;;;;;;6.53;2.95;;;9.20;55.10;;;;;;5020054;28;20026;-62
2023/04/12 00:24:12;;;;;;;8.88;3.40;;;9.20;55.20;;;;;;5032804;28;20049;-62
2023/04/12 00:26:38;;;;;;;11.63;3.22;;;9.20;55.20;;;;;;5026401;28;20064;-62
2023/04/12 00:29:04;;;;;;;6.50;2.75;;;9.20;55.30;;;;;;5018992;28;20026;-63
2023/04/12 00:31:29;;;;;;;5.10;2.53;;;9.20;55.40;;;;;;5023708;28;20030;-62
2023/04/12 00:33:55;;;;;;;6.15;3.05;;;9.30;55.50;;;;;;5025052;28;20037;-62
2023/04/12 00:36:21;;;;;;;7.25;2.90;;;9.30;55.50;;;;;;5027127;28;20068;-61
2023/04/12 00:38:46;;;;;;;14.18;3.35;;;9.30;55.50;;;;;;5018007;28;20042;-63
2023/04/12 00:41:13;;;;;;;8.27;2.88;;;9.30;55.60;;;;;;5021222;28;20057;-64
2023/04/12 00:43:40;;;;;;;5.75;2.83;;;9.30;55.70;;;;;;5021269;28;20045;-63
2023/04/12 00:46:07;;;;;;;5.15;2.70;;;9.30;55.80;;;;;;5016529;28;20045;-62
2023/04/12 00:48:34;;;;;;;9.63;3.13;;;9.30;55.90;;;;;;5018555;28;20049;-63
2023/04/12 00:51:00;;;;;;;5.30;2.58;;;9.40;56.00;;;;;;5022620;28;20034;-62
2023/04/12 00:53:27;;;;;;;6.90;2.47;;;9.40;56.20;;;;;;5019167;28;20022;-62
2023/04/12 00:55:53;;;;;;;5.43;2.85;;;9.50;56.20;;;;;;5030093;28;20105;-62
2023/04/12 00:58:23;;;;;;;8.57;2.60;;;9.40;56.20;;;;;;5015653;28;20027;-62
2023/04/12 01:00:51;;;;;;;6.10;2.90;;;9.40;56.40;;;;;;5017778;28;20041;-62
2023/04/12 01:03:26;;;;;;;8.27;3.00;;;9.40;56.40;;;;;;5024324;28;20030;-62
2023/04/12 01:06:16;;;;;;;7.80;3.42;;;9.40;56.50;;;;;;5034011;28;20028;-62
2023/04/12 01:09:10;;;;;;;5.90;2.95;;;9.40;57.00;;;;;;5037134;28;20030;-62
2023/04/12 01:12:23;;;;;;;8.50;3.05;;;9.40;57.10;;;;;;5064969;28;20034;-62
2023/04/12 01:14:51;;;;;;;5.53;2.85;;;9.40;57.70;;;;;;4995532;28;20069;-63
2023/04/12 01:17:20;;;;;;;10.80;3.33;;;9.40;56.40;;;;;;5001331;28;20190;-63
2023/04/12 01:20:12;;;;;;;9.90;3.25;;;9.40;56.70;;;;;;5001751;28;20102;-62
2023/04/12 01:22:53;;;;;;;7.18;2.92;;;9.40;57.30;;;;;;5002612;28;20138;-63
2023/04/12 01:25:38;;;;;;;6.78;3.03;;;9.40;56.70;;;;;;5001489;28;20525;-62
2023/04/12 01:28:04;;;;;;;;;;;9.40;57.40;;;;;;5011495;28;20121;-64
2023/04/12 01:30:32;;;;;;;5.75;2.78;;;9.40;57.00;;;;;;5005598;28;19909;-62
2023/04/12 01:33:00;;;;;;;7.10;2.85;;;9.40;56.30;;;;;;4988398;28;20063;-63
2023/04/12 01:35:30;;;;;;;6.35;2.75;;;9.40;57.00;;;;;;5006109;28;20061;-62
2023/04/12 01:37:58;;;;;;;8.65;3.38;;;9.40;57.90;;;;;;4990569;28;20277;-62
2023/04/12 01:40:27;;;;;;;8.02;3.70;;;9.30;57.30;;;;;;5007312;28;20034;-63
2023/04/12 01:43:14;;;;;;;8.52;3.10;;;9.40;57.70;;;;;;5003969;28;20025;-62
2023/04/12 01:45:40;;;;;;;5.95;2.80;;;9.40;58.90;;;;;;5005464;28;20038;-63
2023/04/12 01:48:08;;;;;;;5.78;3.03;;;9.40;57.80;;;;;;5012085;28;20100;-62
2023/04/12 01:50:55;;;;;;;7.47;4.15;;;9.40;57.80;;;;;;5006838;28;20037;-63
2023/04/12 01:53:37;;;;;;;7.88;3.17;;;9.40;58.20;;;;;;5026916;28;20025;-63
2023/04/12 01:56:07;;;;;;;5.25;2.95;;;9.40;58.70;;;;;;5022608;28;20381;-63
2023/04/12 01:58:34;;;;;;;6.40;3.45;;;9.40;58.40;;;;;;5029084;28;20022;-62
2023/04/12 02:01:01;;;;;;;7.20;3.88;;;9.40;58.40;;;;;;5027840;28;20056;-63
2023/04/12 02:03:31;;;;;;;7.30;3.30;;;9.40;58.60;;;;;;5027510;28;20540;-62
2023/04/12 02:05:58;;;;;;;7.28;3.22;;;9.40;58.90;;;;;;5029987;28;20057;-63
2023/04/12 02:08:25;;;;;;;5.85;2.90;;;9.40;59.00;;;;;;5025089;28;20026;-62
2023/04/12 02:10:50;;;;;;;7.75;3.15;;;9.50;59.20;;;;;;5036117;28;20060;-62
2023/04/12 02:13:19;;;;;;;6.53;3.05;;;9.50;59.30;;;;;;5030514;28;20037;-62
2023/04/12 02:15:45;;;;;;;6.38;3.25;;;9.70;59.20;;;;;;5026656;28;20026;-62
2023/04/12 02:18:12;;;;;;;6.70;3.70;;;9.50;59.30;;;;;;5031047;28;20033;-63
2023/04/12 02:20:38;;;;;;;6.55;3.25;;;9.50;59.40;;;;;;5033346;28;20052;-63
2023/04/12 02:23:04;;;;;;;6.70;2.78;;;9.50;59.60;;;;;;5031968;28;20033;-62
2023/04/12 02:25:29;;;;;;;10.40;2.90;;;9.50;59.70;;;;;;5014594;28;20061;-62
2023/04/12 02:27:55;;;;;;;7.47;3.15;;;9.50;59.90;;;;;;5021728;28;20236;-62
2023/04/12 02:30:21;;;;;;;8.10;3.25;;;9.50;60.00;;;;;;5017661;28;20019;-62
2023/04/12 02:32:48;;;;;;;8.60;3.03;;;9.50;60.20;;;;;;5027932;28;20026;-63
2023/04/12 02:35:18;;;;;;;7.97;3.17;;;9.50;60.50;;;;;;5019665;28;20026;-62
2023/04/12 02:37:48;;;;;;;5.30;2.95;;;9.50;60.80;;;;;;5038517;28;20127;-62
2023/04/12 02:40:14;;;;;;;6.05;3.35;;;9.50;60.90;;;;;;5059959;28;20060;-64
2023/04/12 02:42:43;;;;;;;7.40;3.25;;;9.50;61.00;;;;;;5024881;28;20029;-61
2023/04/12 02:45:10;;;;;;;7.20;3.55;;;9.50;61.40;;;;;;5054311;28;20041;-61
2023/04/12 02:47:36;;;;;;;8.50;2.92;;;9.60;61.30;;;;;;5033394;28;20025;-63
2023/04/12 02:50:03;;;;;;;4.82;2.90;;;9.60;61.30;;;;;;5029109;28;20029;-61
2023/04/12 02:52:31;;;;;;;6.60;3.22;;;9.60;61.40;;;;;;5026206;28;20077;-63
2023/04/12 02:54:57;;;;;;;5.85;3.08;;;9.60;61.70;;;;;;5031766;28;20021;-62
2023/04/12 02:57:23;;;;;;;5.53;2.95;;;9.60;61.50;;;;;;5042474;28;20026;-62
2023/04/12 02:59:52;;;;;;;6.22;2.72;;;9.60;61.90;;;;;;5037495;28;20088;-63
2023/04/12 03:02:21;;;;;;;4.10;2.42;;;9.60;62.40;;;;;;5037170;28;20038;-62
2023/04/12 03:04:49;;;;;;;5.32;3.05;;;9.60;62.60;;;;;;5027891;28;20064;-62
2023/04/12 03:07:19;;;;;;;9.18;2.60;;;9.60;62.30;;;;;;5030999;28;20022;-63
2023/04/12 03:09:46;;;;;;;8.05;3.13;;;9.60;62.90;;;;;;5035937;28;20033;-61
2023/04/12 03:12:15;;;;;;;6.05;2.72;;;9.70;62.80;;;;;;5020048;28;20480;-62
2023/04/12 03:14:41;;;;;;;3.15;2.20;;;9.70;62.80;;;;;;5032981;28;20080;-63
2023/04/12 03:17:07;;;;;;;7.13;2.15;;;9.70;63.10;;;;;;5028818;28;20014;-63
2023/04/12 03:19:35;;;;;;;5.22;2.28;;;9.70;63.30;;;;;;5019139;28;20026;-62
2023/04/12 03:22:03;;;;;;;4.88;2.67;;;9.80;63.60;;;;;;5018196;28;20030;-63
2023/04/12 03:24:28;;;;;;;9.70;2.67;;;9.80;63.70;;;;;;5039234;28;20478;-61
2023/04/12 03:26:54;;;;;;;5.22;2.40;;;9.80;64.50;;;;;;5026365;28;20022;-63
2023/04/12 03:29:21;;;;;;;4.57;2.63;;;10.00;63.90;;;;;;5022531;28;20018;-62
2023/04/12 03:31:46;;;;;;;6.20;2.42;;;9.90;63.90;;;;;;5025492;28;20058;-63
2023/04/12 03:34:12;;;;;;;6.40;2.67;;;9.90;63.90;;;;;;5045193;28;20036;-61
2023/04/12 03:36:38;;;;;;;5.00;2.40;;;9.90;63.80;;;;;;5019329;28;20041;-61
2023/04/12 03:39:04;;;;;;;5.43;2.60;;;9.90;63.80;;;;;;5022560;28;20030;-61
2023/04/12 03:41:29;;;;;;;5.13;2.30;;;10.00;63.90;;;;;;5027296;28;20047;-63
2023/04/12 03:43:55;;;;;;;5.38;2.42;;;10.00;64.10;;;;;;5029741;28;20131;-62
2023/04/12 03:46:21;;;;;;;6.90;2.63;;;10.00;64.10;;;;;;5032598;28;20117;-62
2023/04/12 03:48:48;;;;;;;5.97;2.22;;;10.00;64.20;;;;;;5019982;28;20084;-63
2023/04/12 03:51:14;;;;;;;7.57;2.40;;;10.00;64.30;;;;;;5024075;28;20056;-62
2023/04/12 03:53:40;;;;;;;3.03;2.08;;;10.00;64.30;;;;;;5034268;28;20029;-61
2023/04/12 03:56:06;;;;;;;4.47;2.08;;;10.10;64.40;;;;;;5050408;28;20060;-61
2023/04/12 03:58:35;;;;;;;2.72;1.90;;;10.10;64.40;;;;;;5032885;28;20017;-62
2023/04/12 04:01:04;;;;;;;6.13;2.40;;;10.10;64.40;;;;;;5019585;28;20033;-62
2023/04/12 04:03:33;;;;;;;3.58;2.33;;;10.10;64.80;;;;;;5026822;28;20013;-61
2023/04/12 04:06:00;;;;;;;6.45;3.53;;;10.10;64.60;;;;;;5056113;28;20030;-63
2023/04/12 04:08:27;;;;;;;9.32;4.68;;;10.20;64.70;;;;;;5024612;28;20018;-62
2023/04/12 04:10:53;;;;;;;9.18;4.50;;;10.20;64.70;;;;;;5022659;28;20099;-63
2023/04/12 04:13:19;;;;;;;12.48;6.05;;;10.20;64.80;;;;;;5026719;28;20025;-62
2023/04/12 04:15:45;;;;;;;19.60;7.78;;;10.20;65.00;;;;;;5053732;28;20014;-62
2023/04/12 04:18:11;;;;;;;15.25;7.80;;;10.20;64.90;;;;;;5025682;28;20025;-62
2023/04/12 04:20:37;;;;;;;14.30;7.78;;;10.20;64.70;;;;;;5035677;28;20021;-61
2023/04/12 04:23:02;;;;;;;9.75;5.35;;;10.20;64.90;;;;;;5017393;28;20026;-62
2023/04/12 04:25:32;;;;;;;8.88;3.92;;;10.30;64.90;;;;;;5030357;28;20038;-62
2023/04/12 04:27:58;;;;;;;5.55;3.15;;;10.30;65.10;;;;;;5023028;28;20038;-63
2023/04/12 04:30:25;;;;;;;3.05;2.33;;;10.30;65.00;;;;;;5020111;28;20021;-62
2023/04/12 04:32:51;;;;;;;5.15;2.10;;;10.30;65.00;;;;;;5020098;28;20034;-62
2023/04/12 04:35:16;;;;;;;2.92;1.90;;;10.30;65.00;;;;;;5018766;28;20037;-62
2023/04/12 04:37:42;;;;;;;3.30;2.00;;;10.20;65.00;;;;;;5021069;28;20077;-61
2023/04/12 04:40:10;;;;;;;3.42;1.92;;;10.20;65.10;;;;;;5026366;28;20033;-62
2023/04/12 04:42:38;;;;;;;7.03;2.55;;;10.30;65.20;;;;;;5029949;28;20500;-62
2023/04/12 04:45:11;;;;;;;4.93;2.47;;;10.20;64.80;;;;;;5029339;28;20048;-61
2023/04/12 04:47:38;;;;;;;8.90;3.00;;;10.20;65.20;;;;;;5024904;28;20041;-61
2023/04/12 04:50:04;;;;;;;3.80;2.78;;;10.20;65.30;;;;;;5031315;28;20033;-63
2023/04/12 04:52:30;;;;;;;2.83;2.00;;;10.20;65.50;;;;;;5033658;28;20033;-63
2023/04/12 04:54:56;;;;;;;2.45;1.90;;;10.20;65.50;;;;;;5025587;28;20088;-64
2023/04/12 04:57:23;;;;;;;2.92;1.80;;;10.20;65.60;;;;;;5032497;28;20081;-62
2023/04/12 04:59:49;;;;;;;3.08;2.20;;;10.30;65.60;;;;;;5032760;28;20485;-61
2023/04/12 05:02:15;;;;;;;6.70;2.45;;;10.30;65.50;;;;;;5030976;28;20132;-61
2023/04/12 05:04:41;;;;;;;4.18;1.98;;;10.30;65.80;;;;;;5018239;28;20062;-62
2023/04/12 05:07:07;;;;;;;2.40;2.00;;;10.30;65.80;;;;;;5025546;28;20029;-62
2023/04/12 05:09:32;;;;;;;3.45;2.28;;;10.30;65.80;;;;;;5030224;28;20062;-63
2023/04/12 05:11:58;;;;;;;2.83;2.28;;;10.30;65.90;;;;;;5029070;28;20026;-61
2023/04/12 05:14:24;;;;;;;3.65;2.10;;;10.30;65.90;;;;;;5025544;28;20036;-61
2023/04/12 05:16:49;;;;;;;4.68;2.13;;;10.30;65.90;;;;;;5026802;28;20469;-62
2023/04/12 05:19:15;;;;;;;2.58;2.10;;;10.30;66.00;;;;;;5030455;28;20044;-61
2023/04/12 05:21:41;;;;;;;2.95;1.60;;;10.30;66.20;;;;;;5033442;28;20029;-61
2023/04/12 05:24:07;;;;;;;4.88;2.22;;;10.40;66.20;;;;;;5054804;28;20034;-64
2023/04/12 05:26:33;;;;;;;2.67;1.52;;;10.40;66.30;;;;;;5027501;28;20089;-62
2023/04/12 05:29:00;;;;;;;3.58;1.90;;;10.40;66.30;;;;;;5027169;28;20025;-63
2023/04/12 05:31:27;;;;;;;2.78;1.80;;;10.40;66.30;;;;;;5050193;28;20025;-61
2023/04/12 05:33:56;;;;;;;3.13;1.88;;;10.40;66.50;;;;;;5026772;28;20037;-62
2023/04/12 05:36:21;;;;;;;2.22;1.80;;;10.40;66.30;;;;;;5022963;28;20057;-63
2023/04/12 05:38:47;;;;;;;2.50;1.90;;;10.40;66.30;;;;;;5028684;28;20105;-62
2023/04/12 05:41:13;;;;;;;2.47;1.67;;;10.40;66.40;;;;;;5026229;28;20072;-62
2023/04/12 05:43:38;;;;;;;3.47;2.03;;;10.40;66.50;;;;;;5056534;28;20273;-63
2023/04/12 05:46:06;;;;;;;2.42;1.77;;;10.40;66.40;;;;;;5027001;28;20029;-62
2023/04/12 05:48:32;;;;;;;2.42;1.60;;;10.40;66.30;;;;;;5033573;28;20335;-63
2023/04/12 05:50:57;;;;;;;2.08;1.50;;;10.40;66.60;;;;;;5030122;28;20022;-62
2023/04/12 05:53:23;;;;;;;2.78;1.85;;;10.40;66.30;;;;;;5050735;28;20033;-63
2023/04/12 05:55:50;;;;;;;2.83;1.70;;;10.40;66.10;;;;;;5023739;28;20034;-62
2023/04/12 05:58:16;;;;;;;2.13;1.75;;;10.40;66.50;;;;;;5027555;28;20120;-62
2023/04/12 06:00:42;;;;;;;2.70;2.00;;;10.40;66.50;;;;;;5031623;28;20954;-63
2023/04/12 06:03:10;;;;;;;3.63;1.67;;;10.40;66.60;;;;;;5027750;28;20026;-65
2023/04/12 06:05:36;;;;;;;3.22;2.10;;;10.40;66.80;;;;;;5028091;28;20029;-65
2023/04/12 06:08:04;;;;;;;3.60;2.15;;;10.40;66.80;;;;;;5021459;28;20030;-65
2023/04/12 06:10:30;;;;;;;3.45;1.67;;;10.40;66.80;;;;;;5028341;28;20133;-65
2023/04/12 06:12:55;;;;;;;2.38;2.03;;;10.50;66.90;;;;;;5024349;28;20454;-66
2023/04/12 06:15:21;;;;;;;1.83;1.63;;;10.50;66.90;;;;;;5022607;28;20054;-65
2023/04/12 06:17:49;;;;;;;2.63;1.80;;;10.50;66.90;;;;;;5028301;28;20427;-66
2023/04/12 06:20:15;;;;;;;2.90;1.90;;;10.60;66.50;;;;;;5024320;28;20211;-65
2023/04/12 06:22:40;;;;;;;2.67;1.85;;;10.60;66.70;;;;;;5022502;28;20060;-65
2023/04/12 06:25:07;;;;;;;1.40;1.30;;;10.50;66.80;;;;;;5012964;28;20038;-65
2023/04/12 06:27:32;;;;;;;2.08;1.30;;;10.60;66.90;;;;;;5023284;28;20117;-65
2023/04/12 06:29:58;;;;;;;2.08;1.27;;;10.60;66.80;;;;;;5031881;28;20025;-65
2023/04/12 06:32:24;;;;;;;1.98;1.25;;;10.60;66.90;;;;;;5018743;28;20086;-66
2023/04/12 06:34:50;;;;;;;3.08;1.25;;;10.60;66.90;;;;;;5028860;28;20060;-65
2023/04/12 06:37:16;;;;;;;2.10;1.40;;;10.70;67.00;;;;;;4982334;28;1212661;-66
2023/04/12 06:39:41;;;;;;;1.25;1.15;;;10.70;67.00;;;;;;5024772;28;20037;-66
2023/04/12 06:42:07;;;;;;;1.80;0.93;;;10.70;66.80;;;;;;5035025;28;20022;-65
2023/04/12 06:44:33;;;;;;;1.38;1.20;;;10.70;66.80;;;;;;5022376;28;20046;-65
2023/04/12 06:46:59;;;;;;;2.55;0.90;;;10.70;67.00;;;;;;5020705;28;20493;-65
2023/04/12 06:49:24;;;;;;;1.75;1.20;;;10.80;67.10;;;;;;5049400;28;20514;-65
2023/04/12 06:51:50;;;;;;;1.95;1.23;;;10.80;67.00;;;;;;5030321;28;20036;-65
2023/04/12 06:54:16;;;;;;;1.17;0.90;;;10.80;67.00;;;;;;5011688;28;20026;-65
2023/04/12 06:56:42;;;;;;;1.55;0.90;;;10.80;67.10;;;;;;5021312;28;20037;-66
2023/04/12 06:59:08;;;;;;;0.93;0.93;;;10.80;67.00;;;;;;5041146;28;20052;-66
2023/04/12 07:01:34;;;;;;;1.60;0.88;;;10.80;67.10;;;;;;5024503;28;20014;-65
2023/04/12 07:04:00;;;;;;;2.10;1.00;;;10.80;67.00;;;;;;5020585;28;20053;-66
2023/04/12 07:06:29;;;;;;;1.77;1.23;;;10.80;67.10;;;;;;5024803;28;20033;-66
2023/04/12 07:08:54;;;;;;;1.33;1.05;;;10.90;67.40;;;;;;5022740;28;20144;-65
2023/04/12 07:11:21;;;;;;;2.28;1.42;;;10.90;67.10;;;;;;5030783;28;20037;-66
2023/04/12 07:13:47;;;;;;;1.65;1.00;;;10.90;67.10;;;;;;5014331;28;20261;-65
2023/04/12 07:16:13;;;;;;;1.83;1.00;;;10.90;67.20;;;;;;5059419;28;20112;-66
2023/04/12 07:18:38;;;;;;;2.08;1.40;;;10.90;67.30;;;;;;5016296;28;20080;-66
2023/04/12 07:21:05;;;;;;;1.95;1.35;;;10.90;67.20;;;;;;5019220;28;20491;-65
2023/04/12 07:23:31;;;;;;;3.33;1.50;;;11.00;67.30;;;;;;5026384;28;20041;-66
2023/04/12 07:26:00;;;;;;;1.58;1.20;;;11.00;67.40;;;;;;5022971;28;20030;-65
2023/04/12 07:28:26;;;;;;;1.60;1.17;;;11.00;67.60;;;;;;5022455;28;20025;-65
2023/04/12 07:30:52;;;;;;;4.07;0.90;;;11.00;67.30;;;;;;5023571;28;20451;-65
2023/04/12 07:33:18;;;;;;;2.45;1.23;;;11.00;67.20;;;;;;5029921;28;20052;-65
2023/04/12 07:35:44;;;;;;;2.10;1.25;;;11.00;67.30;;;;;;5020924;28;20018;-66
2023/04/12 07:38:09;;;;;;;1.45;0.90;;;11.00;67.30;;;;;;5021223;28;20705;-64
2023/04/12 07:40:35;;;;;;;1.92;1.02;;;11.00;67.30;;;;;;5025862;28;20032;-65
2023/04/12 07:43:01;;;;;;;2.05;1.38;;;11.10;67.40;;;;;;5022911;28;20030;-63
2023/04/12 07:45:26;;;;;;;2.17;1.20;;;11.10;67.50;;;;;;5016288;28;20153;-65
2023/04/12 07:47:52;;;;;;;3.13;1.65;;;11.10;67.60;;;;;;5023345;28;20022;-66
2023/04/12 07:50:18;;;;;;;2.33;1.40;;;11.10;68.30;;;;;;5019104;28;20025;-64
2023/04/12 07:52:43;;;;;;;4.78;1.05;;;11.10;67.90;;;;;;5023694;28;20041;-65
2023/04/12 07:55:09;;;;;;;5.13;1.25;;;11.10;67.60;;;;;;5017733;28;20026;-65
2023/04/12 07:57:35;;;;;;;2.55;1.60;;;11.20;67.90;;;;;;5016205;28;20030;-64
2023/04/12 08:00:01;;;;;;;3.50;1.50;;;11.20;68.30;;;;;;5014733;28;20032;-65
2023/04/12 08:02:26;;;;;;;1.50;1.10;;;11.20;68.50;;;;;;5019671;28;20052;-64
2023/04/12 08:04:55;;;;;;;2.13;1.10;;;11.30;67.90;;;;;;5017494;28;20069;-63
2023/04/12 08:07:21;;;;;;;2.55;1.30;;;11.30;69.10;;;;;;5023990;28;20033;-63
2023/04/12 08:09:47;;;;;;;2.70;1.50;;;11.30;67.80;;;;;;5017212;28;20030;-64
2023/04/12 08:12:14;;;;;;;2.28;1.15;;;11.30;67.90;;;;;;5016387;28;20048;-64
2023/04/12 08:14:40;;;;;;;2.40;1.40;;;11.40;68.00;;;;;;5028826;28;20030;-65
2023/04/12 08:17:06;;;;;;;1.65;1.05;;;11.40;67.90;;;;;;5028048;28;20030;-63
2023/04/12 08:19:31;;;;;;;2.40;1.30;;;11.50;67.90;;;;;;5028996;28;20051;-64
2023/04/12 08:21:57;;;;;;;3.88;2.30;;;11.50;68.00;;;;;;5031378;28;20022;-64
2023/04/12 08:24:23;;;;;;;6.68;3.65;;;11.50;68.00;;;;;;5017759;28;20052;-64
2023/04/12 08:26:50;;;;;;;3.28;2.10;;;11.60;68.20;;;;;;5023924;28;20480;-64
2023/04/12 08:29:16;;;;;;;7.57;4.20;;;11.60;68.20;;;;;;5029612;28;20108;-65
2023/04/12 08:31:41;;;;;;;4.18;2.10;;;11.70;68.40;;;;;;5024618;28;20392;-65
2023/04/12 08:34:07;;;;;;;4.25;1.50;;;11.70;67.90;;;;;;5023531;28;20033;-65
2023/04/12 08:36:33;;;;;;;2.72;1.70;;;11.70;67.90;;;;;;5031113;28;20045;-65
2023/04/12 08:39:00;;;;;;;1.20;1.10;;;11.80;68.00;;;;;;5051808;28;20026;-64
2023/04/12 08:41:26;;;;;;;1.58;1.20;;;11.80;68.00;;;;;;5016533;28;20776;-65
2023/04/12 08:43:54;;;;;;;0.85;0.85;;;11.90;67.90;;;;;;5022613;28;20081;-64
2023/04/12 08:46:20;;;;;;;2.78;1.10;;;12.00;67.60;;;;;;5019600;28;20033;-65
2023/04/12 08:48:48;;;;;;;2.45;1.30;;;12.00;67.40;;;;;;5026436;28;20058;-64
2023/04/12 08:51:20;;;;;;;4.85;4.15;;;12.00;67.80;;;;;;5028633;28;20026;-64
2023/04/12 08:53:46;;;;;;;3.35;1.55;;;12.10;68.00;;;;;;5028588;28;20033;-65
2023/04/12 08:56:13;;;;;;;3.03;1.27;;;12.10;67.40;;;;;;5025618;28;20030;-63
2023/04/12 08:58:40;;;;;;;4.10;0.90;;;12.10;67.10;;;;;;5012880;28;20048;-65
2023/04/12 09:01:14;;;;;;;1.83;1.10;;;12.10;67.10;;;;;;5022819;28;20034;-65
2023/04/12 09:03:41;;;;;;;4.85;3.90;;;12.10;67.60;;;;;;5061758;28;20026;-64
2023/04/12 09:06:08;;;;;;;1.65;1.35;;;12.10;67.30;;;;;;5025078;28;20033;-65
2023/04/12 09:08:34;;;;;;;1.42;1.23;;;12.10;67.50;;;;;;5031345;28;20041;-65
2023/04/12 09:11:00;;;;;;;2.20;1.30;;;12.10;67.20;;;;;;5026485;28;20045;-64
2023/04/12 09:13:38;;;;;;;1.48;1.10;;;12.10;67.40;;;;;;5019558;28;20040;-64
2023/04/12 09:16:04;;;;;;;2.83;1.63;;;12.10;68.20;;;;;;5018992;28;20034;-66
2023/04/12 09:18:30;;;;;;;1.23;1.10;;;12.10;67.50;;;;;;5031478;28;20037;-64
2023/04/12 09:21:10;;;;;;;1.95;1.20;;;12.10;67.70;;;;;;5019764;28;20131;-64
2023/04/12 09:23:36;;;;;;;2.95;1.33;;;12.10;68.50;;;;;;5013985;28;20145;-64
2023/04/12 09:26:02;;;;;;;1.80;1.15;;;12.20;67.80;;;;;;5034333;28;20484;-65
2023/04/12 09:28:29;;;;;;;3.22;1.23;;;12.20;68.00;;;;;;5045178;28;20022;-65
2023/04/12 09:30:59;;;;;;;3.45;1.30;;;12.20;67.80;;;;;;5021572;28;20050;-65
2023/04/12 09:33:36;;;;;;;2.08;1.25;;;12.30;68.30;;;;;;5030306;28;20322;-64
2023/04/12 09:36:03;;;;;;;2.22;1.35;;;12.30;69.30;;;;;;5024731;28;20046;-64
2023/04/12 09:38:35;;;;;;;2.47;1.67;;;12.30;67.70;;;;;;5043445;28;20030;-65
2023/04/12 09:41:18;;;;;;;1.98;1.73;;;12.40;67.70;;;;;;4944702;28;20663;-66
2023/04/12 09:43:44;;;;;;;3.97;1.70;;;12.40;68.80;;;;;;5021226;28;20029;-65
2023/04/12 09:46:14;;;;;;;1.83;1.38;;;12.40;67.70;;;;;;5025238;28;20101;-64
2023/04/12 09:48:47;;;;;;;3.17;1.80;;;12.40;68.00;;;;;;5035137;28;20018;-64
2023/04/12 09:51:13;;;;;;;2.17;1.38;;;12.40;67.80;;;;;;5017323;28;20029;-66
2023/04/12 09:53:41;;;;;;;3.38;1.77;;;12.50;67.90;;;;;;5017379;28;20022;-64
2023/04/12 09:56:09;;;;;;;3.03;1.50;;;12.50;67.90;;;;;;5028274;28;20120;-66
2023/04/12 09:58:36;;;;;;;2.17;1.50;;;12.60;68.70;;;;;;5028788;28;20021;-64
2023/04/12 10:01:03;;;;;;;2.75;1.55;;;12.60;68.10;;;;;;5027725;28;20033;-64
2023/04/12 10:03:32;;;;;;;6.60;3.17;;;12.60;68.20;;;;;;5052319;28;20026;-65
2023/04/12 10:05:58;;;;;;;2.83;1.73;;;12.70;68.60;;;;;;5024905;28;20053;-64
2023/04/12 10:08:25;;;;;;;2.67;1.90;;;12.80;68.70;;;;;;5030338;28;20469;-64
2023/04/12 10:10:52;;;;;;;2.95;1.95;;;12.80;68.90;;;;;;5043055;28;20040;-63
2023/04/12 10:13:18;;;;;;;2.72;1.70;;;12.90;68.70;;;;;;5029838;28;20049;-65
2023/04/12 10:15:49;;;;;;;1.77;1.45;;;13.00;68.80;;;;;;5021869;28;20053;-64
2023/04/12 10:18:17;;;;;;;1.77;1.48;;;13.10;68.90;;;;;;5033171;28;20029;-65
2023/04/12 10:20:45;;;;;;;3.67;1.67;;;13.20;68.60;;;;;;5027647;28;20101;-65
2023/04/12 10:23:11;;;;;;;3.60;1.67;;;13.30;67.90;;;;;;5029019;28;20029;-64
2023/04/12 10:25:40;;;;;;;3.85;1.92;;;13.30;67.70;;;;;;5024231;28;20124;-64
2023/04/12 10:28:18;;;;;;;2.78;1.60;;;13.40;67.60;;;;;;5029146;28;20026;-64
2023/04/12 10:30:48;;;;;;;4.32;1.88;;;13.40;68.30;;;;;;5026763;28;20366;-64
2023/04/12 10:33:15;;;;;;;3.17;1.90;;;13.50;67.90;;;;;;5035044;28;20052;-64
2023/04/12 10:35:48;;;;;;;3.55;2.00;;;13.50;68.00;;;;;;5023971;28;20030;-64
2023/04/12 10:38:15;;;;;;;2.55;1.70;;;13.50;68.50;;;;;;5028387;28;20110;-64
2023/04/12 10:41:19;;;;;;;2.75;1.58;;;13.60;69.00;;;;;;5049095;28;20584;-64
2023/04/12 10:43:49;;;;;;;2.60;1.52;;;13.60;69.60;;;;;;5024648;28;20030;-64
2023/04/12 10:46:39;;;;;;;2.65;1.63;;;13.70;68.50;;;;;;5025843;28;20071;-64
2023/04/12 10:49:12;;;;;;;2.35;1.80;;;13.80;68.80;;;;;;5024803;28;20025;-65
2023/04/12 10:51:39;;;;;;;3.15;1.70;;;13.90;68.50;;;;;;5028245;28;20021;-65
2023/04/12 10:54:08;;;;;;;3.15;2.00;;;13.90;68.00;;;;;;5024783;28;20022;-65
2023/04/12 10:56:38;;;;;;;2.17;1.70;;;14.00;68.40;;;;;;5022639;28;20028;-64
2023/04/12 10:59:05;;;;;;;3.15;1.88;;;14.10;67.90;;;;;;5028418;28;20029;-65
2023/04/12 11:01:32;;;;;;;2.33;1.90;;;14.10;67.60;;;;;;5024638;28;20177;-64
2023/04/12 11:04:08;;;;;;;5.38;2.10;;;14.20;67.50;;;;;;5024314;28;20128;-64
2023/04/12 11:07:05;;;;;;;3.17;2.22;;;14.20;68.00;;;;;;5024076;28;20037;-65
2023/04/12 11:09:39;;;;;;;2.50;2.00;;;14.20;68.30;;;;;;5025490;28;20129;-65
2023/04/12 11:12:05;;;;;;;3.25;1.90;;;14.30;67.60;;;;;;5029556;28;20038;-64
2023/04/12 11:14:42;;;;;;;2.88;1.90;;;14.30;67.10;;;;;;5023421;28;20029;-64
2023/04/12 11:17:08;;;;;;;4.22;1.98;;;14.30;67.60;;;;;;5026631;28;20545;-65
2023/04/12 11:19:36;;;;;;;2.40;1.80;;;14.40;67.50;;;;;;5021476;28;20037;-65
2023/04/12 11:22:07;;;;;;;5.85;2.20;;;14.40;67.30;;;;;;5021957;28;20117;-64
2023/04/12 11:24:36;;;;;;;3.70;2.20;;;14.50;67.40;;;;;;5064625;28;20037;-65
2023/04/12 11:27:03;;;;;;;3.17;2.03;;;14.50;67.00;;;;;;5047195;28;20034;-65
2023/04/12 11:29:31;;;;;;;2.78;2.20;;;14.50;67.10;;;;;;5044760;28;20026;-65
2023/04/12 11:31:57;;;;;;;2.70;2.03;;;14.60;67.40;;;;;;5026268;28;20030;-65
2023/04/12 11:34:24;;;;;;;2.75;2.05;;;14.70;67.20;;;;;;5026256;28;20109;-65
2023/04/12 11:36:53;;;;;;;3.17;2.40;;;14.70;67.20;;;;;;5034420;28;20122;-65
2023/04/12 11:39:20;;;;;;;4.53;2.50;;;14.80;67.60;;;;;;5028327;28;20029;-65
2023/04/12 11:41:49;;;;;;;3.40;2.10;;;14.80;67.70;;;;;;5036695;28;20025;-65
2023/04/12 11:44:20;;;;;;;3.38;2.10;;;14.90;67.90;;;;;;5023880;28;20048;-64
2023/04/12 11:46:46;;;;;;;3.15;2.42;;;15.00;67.60;;;;;;5029569;28;20136;-64
2023/04/12 11:49:16;;;;;;;2.45;2.25;;;15.10;67.60;;;;;;5026491;28;20129;-66
2023/04/12 11:51:42;;;;;;;4.47;2.40;;;15.20;67.70;;;;;;5023227;28;20022;-65
2023/04/12 11:54:09;;;;;;;6.40;2.50;;;15.30;66.80;;;;;;5053083;28;20026;-65
2023/04/12 11:56:36;;;;;;;4.53;2.58;;;15.30;66.70;;;;;;5020157;28;20026;-64
2023/04/12 11:59:01;;;;;;;3.85;2.47;;;15.40;66.70;;;;;;5023690;28;20021;-64
2023/04/12 12:01:28;;;;;;;4.22;2.63;;;15.50;66.70;;;;;;5020387;28;20026;-64
2023/04/12 12:03:54;;;;;;;4.40;2.88;;;15.50;66.80;;;;;;5024250;28;20024;-65
2023/04/12 12:06:21;;;;;;;2.83;2.55;;;15.60;66.60;;;;;;5023783;28;20030;-65
2023/04/12 12:08:50;;;;;;;3.97;2.45;;;15.60;66.40;;;;;;5027986;28;20022;-65
2023/04/12 12:11:16;;;;;;;3.97;2.67;;;15.70;66.40;;;;;;5031834;28;20026;-65
2023/04/12 12:13:47;;;;;;;5.15;2.92;;;15.70;66.00;;;;;;5031773;28;20036;-65
2023/04/12 12:16:13;;;;;;;3.70;2.92;;;15.70;65.80;;;;;;5047186;28;20038;-67
2023/04/12 12:18:40;;;;;;;5.85;3.00;;;15.80;65.60;;;;;;5023376;28;20026;-65
2023/04/12 12:21:08;;;;;;;3.35;2.65;;;15.80;66.10;;;;;;5012871;28;20041;-65
2023/04/12 12:23:34;;;;;;;2.65;2.28;;;15.80;66.40;;;;;;5014247;28;20085;-65
2023/04/12 12:26:05;;;;;;;3.47;2.20;;;16.00;65.90;;;;;;5020527;28;20456;-66
2023/04/12 12:28:38;;;;;;;4.00;2.45;;;16.10;65.60;;;;;;5025934;28;20485;-65
2023/04/12 12:31:09;;;;;;;4.47;2.40;;;16.10;65.60;;;;;;5021581;28;20030;-65
2023/04/12 12:33:41;;;;;;;3.25;2.30;;;16.30;65.40;;;;;;5017819;28;20022;-66
2023/04/12 12:36:07;;;;;;;3.30;2.00;;;16.40;64.80;;;;;;5031040;28;20085;-65
2023/04/12 12:38:35;;;;;;;2.95;1.95;;;16.50;64.10;;;;;;5025656;28;20041;-66
2023/04/12 12:41:22;;;;;;;5.75;2.92;;;16.60;63.30;;;;;;5019866;28;20045;-65
2023/04/12 12:43:49;;;;;;;2.72;1.83;;;16.60;62.70;;;;;;5024738;28;20023;-65
2023/04/12 12:46:19;;;;;;;4.22;2.05;;;16.60;62.50;;;;;;5020861;28;20068;-65
2023/04/12 12:48:46;;;;;;;3.67;1.98;;;16.50;62.30;;;;;;5026922;28;20038;-67
2023/04/12 12:51:16;;;;;;;3.67;2.45;;;16.50;62.20;;;;;;5023365;28;20025;-66
2023/04/12 12:53:42;;;;;;;2.97;1.75;;;16.40;62.20;;;;;;5022230;28;20038;-65
2023/04/12 12:56:11;;;;;;;3.60;1.73;;;16.40;62.40;;;;;;5019457;28;20042;-66